• Join FlightAware (Why Join?)
  • Login
  • US Flag GB Flag 
21:38 EDT


 

Airport Tracker/Info


-or-


 

Live Flight TrackerFlight Track Log ✈ UAL6148 ✈ 25-Apr-2013 ✈ KORD - KLNK

Flight Track Log - Related Links

Times and Time Zones

All times are in EDT time to prevent confusion due to time zone crossing. See the UAL6148 flight status page for this flight to view local times or setup timezone preferences in your user account.

Time Position Orientation Groundspeed Altitude Reporting Facility
EDT Latitude Longitude Course Direction KTS MPH feet Rate Location/Type
20:07 42.0167 -88.0000 270° West 195 224 4,300  Level Chicago TRACON
20:08 42.0167 -88.0667 270° West 216 249 6,400 2,220 Climbing Chicago TRACON
20:09 42.0181 -88.1347 272° West 230 265 8,300 2,520 Climbing Chicago Center
20:10 42.0122 -88.2275 265° West 246 283 11,200 2,460 Climbing Chicago Center
20:11 42.0033 -88.3442 264° West 261 300 13,500 1,620 Climbing Chicago Center
20:12 41.9964 -88.4572 265° West 297 342 14,600 1,140 Climbing Chicago Center
20:13 41.9842 -88.5817 263° West 335 386 15,900 1,260 Climbing Chicago Center
20:14 41.9661 -88.7083 259° West 346 398 17,300 1,260 Climbing Chicago Center
20:15 41.9486 -88.8378 260° West 355 409 18,600 1,440 Climbing Chicago Center
20:16 41.9264 -88.9933 259° West 356 410 20,400 1,560 Climbing Chicago Center
20:17 41.9072 -89.1261 259° West 362 417 21,900 1,440 Climbing Chicago Center
20:18 41.8889 -89.2578 259° West 363 418 23,400 1,440 Climbing Chicago Center
20:19 41.8736 -89.3897 261° West 363 418 24,900 1,380 Climbing Chicago Center
20:20 41.8606 -89.5197 262° West 359 413 26,300 1,620 Climbing Chicago Center
20:21 41.8467 -89.6703 263° West 345 397 28,300 1,800 Climbing Chicago Center
20:22 41.8333 -89.7922 262° West 334 384 30,100 1,560 Climbing Chicago Center
20:23 41.8189 -89.9100 261° West 325 374 31,600 1,440 Climbing Chicago Center
20:24 41.8075 -90.0325 263° West 331 381 33,100 1,140 Climbing Chicago Center
20:25 41.7953 -90.1494 262° West 318 366 34,000 420 Climbing Chicago Center
20:26 41.7817 -90.2733 262° West 338 389 34,000  Level Chicago Center
20:28 41.7639 -90.4114 260° West 369 425 34,000  Level Chicago Center
20:29 41.7456 -90.5783 262° West 378 435 34,000  Level Chicago Center
20:30 41.7292 -90.7103 261° West 377 434 34,000  Level Chicago Center
20:31 41.7139 -90.8483 262° West 378 435 34,000  Level Chicago Center
20:32 41.6972 -90.9858 261° West 378 435 34,000  Level Chicago Center
20:33 41.6772 -91.1511 261° West 377 434 34,000  Level Chicago Center
20:34 41.6606 -91.2867 261° West 374 430 34,000  Level Chicago Center
20:35 41.6442 -91.4219 261° West 370 426 34,000  Level Chicago Center
20:36 41.6269 -91.5586 260° West 373 429 34,000  Level Chicago Center
20:37 41.6103 -91.6917 261° West 367 422 34,000  Level Chicago Center
20:38 41.5919 -91.8506 261° West 363 418 34,000  Level Chicago Center
20:39 41.5733 -91.9825 259° West 364 419 34,000  Level Chicago Center
20:40 41.5556 -92.1131 260° West 360 414 34,000  Level Chicago Center
20:41 41.5397 -92.2417 261° West 354 407 34,000  Level Chicago Center
20:42 41.5233 -92.3714 260° West 356 410 34,000  Level Chicago Center
20:44 41.4833 -92.6575 260° West 351 404 34,000  Level Chicago Center
20:44 41.4769 -92.7122 261° West 354 407 34,000  Level Minneapolis Center
20:46 41.4589 -92.8378 259° West 352 405 34,000  Level Minneapolis Center
20:47 41.4419 -92.9681 260° West 356 410 34,000  Level Minneapolis Center
20:48 41.4233 -93.0967 259° West 358 412 34,000  Level Minneapolis Center
20:49 41.4047 -93.2261 259° West 359 413 34,000  Level Minneapolis Center
20:50 41.3831 -93.3828 260° West 362 417 34,000  Level Minneapolis Center
20:51 41.3647 -93.5125 259° West 360 414 34,000  Level Minneapolis Center
20:52 41.3472 -93.6392 260° West 356 410 34,000  Level Minneapolis Center
20:53 41.3272 -93.7708 259° West 362 417 34,000  Level Minneapolis Center
20:54 41.3089 -93.9008 259° West 362 417 34,000  Level Minneapolis Center
20:55 41.2839 -94.0589 258° West 365 420 34,000  Level Minneapolis Center
20:56 41.2631 -94.1894 258° West 365 420 34,000  Level Minneapolis Center
20:57 41.2469 -94.3164 260° West 359 413 34,000  Level Minneapolis Center
20:58 41.2281 -94.4469 259° West 359 413 34,000  Level Minneapolis Center
20:59 41.2078 -94.5767 258° West 360 414 34,000 -300 Level Minneapolis Center
21:00 41.1839 -94.7339 259° West 362 417 33,500 -1,260 Descending Minneapolis Center
21:01 41.1653 -94.8606 259° West 355 409 31,500 -2,040 Descending Minneapolis Center
21:02 41.1442 -94.9856 257° West 349 402 29,400 -2,040 Descending Minneapolis Center
21:03 41.1228 -95.1203 258° West 364 419 27,400 -1,860 Descending Minneapolis Center
21:04 41.1053 -95.2333 258° West 381 438 25,600 -2,400 Descending Minneapolis Center
21:05 41.0953 -95.3283 262° West 386 444 24,000 -2,820 Descending Minneapolis Center
21:05 41.0786 -95.3969 252° West 380 437 22,700 -2,820 Descending Minneapolis Center
21:06 41.0733 -95.4639 264° West 373 429 21,200 -2,760 Descending Minneapolis Center
21:06 41.0567 -95.5331 252° West 377 434 19,900 -2,580 Descending Minneapolis Center
21:07 41.0478 -95.6081 261° West 374 430 18,400 -2,820 Descending Minneapolis Center
21:07 41.0300 -95.6906 254° West 370 426 17,000 -2,580 Descending Minneapolis Center
21:08 41.0253 -95.7378 262° West 360 414 16,000 -2,340 Descending Minneapolis Center
21:08 41.0092 -95.8211 256° West 364 419 14,600 -2,220 Descending Minneapolis Center
21:09 41.0003 -95.8650 255° West 356 410 13,800 -2,040 Descending Minneapolis Center
21:09 40.9969 -95.9464 267° West 350 403 12,500 -1,740 Descending Minneapolis Center
21:10 40.9936 -96.0575 268° West 309 356 10,800 -1,620 Descending Minneapolis Center
21:11 40.9900 -96.0928 262° West 276 318 10,400 -1,380 Descending Minneapolis Center
21:11 40.9928 -96.1572 273° West 278 320 9,400 -1,620 Descending Minneapolis Center
21:12 40.9886 -96.1978 262° West 255 293 8,600 -1,680 Descending Minneapolis Center
21:12 40.9928 -96.2483 276° West 257 296 7,700 -1,680 Descending Minneapolis Center
21:13 40.9881 -96.2917 262° West 244 281 6,900 -1,680 Descending Minneapolis Center
21:13 40.9944 -96.3386 280° West 250 288 6,000 -1,080 Descending Minneapolis Center
21:15 40.9983 -96.4450 273° West 244 281 4,900 -1,080 Descending Minneapolis Center
21:16 40.9917 -96.5536 265° West 248 285 3,700 -960 Descending Minneapolis Center
21:17 40.9928 -96.6417 271° West 228 262 3,000 -240 Descending Minneapolis Center
21:18 40.9811 -96.7072 257° West 211 243 3,200  Climbing Minneapolis Center
21:19 40.9533 -96.7536 232° Southwest 183 211 3,000 -480 Descending Minneapolis Center
21:20 40.9192 -96.7625 191° South 147 169 2,300 -720 Descending Minneapolis Center
21:21 40.8722 -96.7564 174° South 126 145 1,700 -720 Descending Minneapolis Center